createdAt,value
2018-02-10T00:00:17.916Z,1020.51
2018-02-10T00:01:44.877Z,1020.51
2018-02-10T00:03:12.029Z,1020.55
2018-02-10T00:04:38.850Z,1020.56
2018-02-10T00:06:05.833Z,1020.56
2018-02-10T00:07:32.847Z,1020.56
2018-02-10T00:08:59.860Z,1020.56
2018-02-10T00:10:26.600Z,1020.56
2018-02-10T00:11:53.629Z,1020.56
2018-02-10T00:13:20.729Z,1020.56
2018-02-10T00:14:47.782Z,1020.57
2018-02-10T00:16:14.663Z,1020.58
2018-02-10T00:17:41.839Z,1020.58
2018-02-10T00:19:08.942Z,1020.59
2018-02-10T00:20:35.918Z,1020.55
2018-02-10T00:22:02.868Z,1020.55
2018-02-10T00:23:29.643Z,1020.55
2018-02-10T00:24:56.216Z,1020.55
2018-02-10T00:26:23.156Z,1020.56
2018-02-10T00:27:50.175Z,1020.55
2018-02-10T00:29:16.983Z,1020.53
2018-02-10T00:30:43.977Z,1020.54
2018-02-10T00:32:10.885Z,1020.53
2018-02-10T00:33:37.751Z,1020.50
2018-02-10T00:35:04.760Z,1020.52
2018-02-10T00:36:31.753Z,1020.49
2018-02-10T00:37:58.523Z,1020.45
2018-02-10T00:39:25.567Z,1020.44
2018-02-10T00:40:52.230Z,1020.41
2018-02-10T00:42:18.819Z,1020.41
2018-02-10T00:43:45.867Z,1020.40
2018-02-10T00:45:12.799Z,1020.40
2018-02-10T00:46:39.852Z,1020.41
2018-02-10T00:48:06.635Z,1020.41
2018-02-10T00:49:33.742Z,1020.38
2018-02-10T00:51:00.577Z,1020.40
2018-02-10T00:52:27.398Z,1020.40
2018-02-10T00:53:54.282Z,1020.41
2018-02-10T00:55:21.268Z,1020.44
2018-02-10T00:56:48.335Z,1020.44
2018-02-10T00:58:15.375Z,1020.42
2018-02-10T00:59:42.635Z,1020.40
2018-02-10T01:01:09.382Z,1020.38
2018-02-10T01:02:36.189Z,1020.34
2018-02-10T01:04:03.088Z,1020.33
2018-02-10T01:05:29.994Z,1020.31
2018-02-10T01:06:57.298Z,1020.31
2018-02-10T01:08:24.419Z,1020.31
2018-02-10T01:09:51.012Z,1020.28
2018-02-10T01:11:17.705Z,1020.26
2018-02-10T01:12:44.892Z,1020.28
2018-02-10T01:14:12.014Z,1020.30
2018-02-10T01:15:39.059Z,1020.30
2018-02-10T01:17:06.076Z,1020.33
2018-02-10T01:18:32.627Z,1020.33
2018-02-10T01:19:59.532Z,1020.32
2018-02-10T01:21:26.240Z,1020.34
2018-02-10T01:22:53.113Z,1020.33
2018-02-10T01:24:20.422Z,1020.32
2018-02-10T01:25:47.334Z,1020.31
2018-02-10T01:27:14.432Z,1020.29
2018-02-10T01:28:41.526Z,1020.27
2018-02-10T01:30:08.513Z,1020.28
2018-02-10T01:31:35.376Z,1020.26
2018-02-10T01:33:02.256Z,1020.27
2018-02-10T01:34:29.294Z,1020.27
2018-02-10T01:35:56.161Z,1020.26
2018-02-10T01:37:23.191Z,1020.27
2018-02-10T01:38:50.418Z,1020.25
2018-02-10T01:40:17.348Z,1020.25
2018-02-10T01:41:44.206Z,1020.24
2018-02-10T01:43:11.187Z,1020.21
2018-02-10T01:44:38.342Z,1020.22
2018-02-10T01:46:05.338Z,1020.25
2018-02-10T01:47:32.440Z,1020.25
2018-02-10T01:48:59.505Z,1020.25
2018-02-10T01:50:26.580Z,1020.27
2018-02-10T01:51:53.474Z,1020.26
2018-02-10T01:53:20.723Z,1020.24
2018-02-10T01:54:47.604Z,1020.25
2018-02-10T01:56:14.487Z,1020.22
2018-02-10T01:57:41.503Z,1020.21
2018-02-10T01:59:08.705Z,1020.19
2018-02-10T02:00:35.607Z,1020.16
2018-02-10T02:02:03.036Z,1020.18
2018-02-10T02:03:29.760Z,1020.22
2018-02-10T02:04:56.811Z,1020.18
2018-02-10T02:06:23.759Z,1020.13
2018-02-10T02:07:50.628Z,1020.12
2018-02-10T02:09:17.617Z,1020.14
2018-02-10T02:10:44.769Z,1020.14
2018-02-10T02:12:11.623Z,1020.13
2018-02-10T02:13:39.035Z,1020.11
2018-02-10T02:15:05.816Z,1020.10
2018-02-10T02:16:32.510Z,1020.09
2018-02-10T02:17:59.498Z,1020.11
2018-02-10T02:19:26.278Z,1020.08
2018-02-10T02:20:53.417Z,1020.07
2018-02-10T02:22:20.474Z,1020.08
2018-02-10T02:23:47.522Z,1020.03
2018-02-10T02:25:14.482Z,1020.01
2018-02-10T02:26:41.401Z,1020.03
2018-02-10T02:28:08.663Z,1020.04
2018-02-10T02:29:35.696Z,1020.06
2018-02-10T02:31:02.598Z,1020.04
2018-02-10T02:32:29.759Z,1020.02
2018-02-10T02:33:56.624Z,1020.01
2018-02-10T02:35:23.574Z,1020.01
2018-02-10T02:36:50.694Z,1019.99
2018-02-10T02:38:20.646Z,1020.00
2018-02-10T02:39:44.414Z,1019.97
2018-02-10T02:41:11.074Z,1019.96
2018-02-10T02:42:38.319Z,1019.94
2018-02-10T02:44:05.062Z,1019.94
2018-02-10T02:45:32.230Z,1019.90
2018-02-10T02:46:59.010Z,1019.86
2018-02-10T02:48:26.296Z,1019.83
2018-02-10T02:49:52.944Z,1019.79
2018-02-10T02:51:20.110Z,1019.75
2018-02-10T02:52:47.186Z,1019.79
2018-02-10T02:54:14.301Z,1019.74
2018-02-10T02:55:41.093Z,1019.74
2018-02-10T02:57:08.131Z,1019.72
2018-02-10T02:58:35.015Z,1019.74
2018-02-10T03:00:02.035Z,1019.74
2018-02-10T03:01:28.887Z,1019.74
2018-02-10T03:02:56.170Z,1019.75
2018-02-10T03:04:22.727Z,1019.73
2018-02-10T03:05:49.845Z,1019.75
2018-02-10T03:07:16.922Z,1019.73
2018-02-10T03:08:44.015Z,1019.78
2018-02-10T03:10:10.923Z,1019.75
2018-02-10T03:11:37.984Z,1019.75
2018-02-10T03:13:05.276Z,1019.71
2018-02-10T03:14:32.315Z,1019.68
2018-02-10T03:15:59.233Z,1019.71
2018-02-10T03:17:26.210Z,1019.71
2018-02-10T03:18:53.388Z,1019.72
2018-02-10T03:20:20.303Z,1019.72
2018-02-10T03:21:47.370Z,1019.71
2018-02-10T03:23:14.555Z,1019.75
2018-02-10T03:24:41.537Z,1019.72
2018-02-10T03:26:08.549Z,1019.74
2018-02-10T03:27:35.480Z,1019.74
2018-02-10T03:29:02.571Z,1019.74
2018-02-10T03:30:29.497Z,1019.73
2018-02-10T03:31:56.663Z,1019.79
2018-02-10T03:33:23.604Z,1019.77
2018-02-10T03:34:50.604Z,1019.80
2018-02-10T03:36:17.474Z,1019.80
2018-02-10T03:37:44.448Z,1019.77
2018-02-10T03:39:11.494Z,1019.74
2018-02-10T03:40:38.531Z,1019.75
2018-02-10T03:42:05.622Z,1019.74
2018-02-10T03:43:32.580Z,1019.70
2018-02-10T03:44:59.746Z,1019.73
2018-02-10T03:46:26.771Z,1019.70
2018-02-10T03:47:53.993Z,1019.69
2018-02-10T03:49:28.890Z,1019.74
2018-02-10T03:50:47.488Z,1019.72
2018-02-10T03:52:14.369Z,1019.75
2018-02-10T03:53:41.280Z,1019.74
2018-02-10T03:55:08.344Z,1019.74
2018-02-10T03:56:35.465Z,1019.74
2018-02-10T03:58:02.374Z,1019.70
2018-02-10T03:59:29.557Z,1019.74
2018-02-10T04:00:56.496Z,1019.78
2018-02-10T04:02:23.466Z,1019.72
2018-02-10T04:03:50.473Z,1019.74
2018-02-10T04:05:17.487Z,1019.77
2018-02-10T04:06:44.438Z,1019.79
2018-02-10T04:08:11.603Z,1019.78
2018-02-10T04:09:38.604Z,1019.80
2018-02-10T04:11:05.683Z,1019.79
2018-02-10T04:12:32.665Z,1019.80
2018-02-10T04:13:59.917Z,1019.84
2018-02-10T04:15:26.851Z,1019.80
2018-02-10T04:16:53.788Z,1019.82
2018-02-10T04:18:21.764Z,1019.85
2018-02-10T04:19:47.751Z,1019.84
2018-02-10T04:21:14.837Z,1019.80
2018-02-10T04:22:42.020Z,1019.77
2018-02-10T04:24:09.135Z,1019.74
2018-02-10T04:25:36.123Z,1019.75
2018-02-10T04:27:03.024Z,1019.72
2018-02-10T04:28:30.278Z,1019.70
2018-02-10T04:29:57.322Z,1019.68
2018-02-10T04:31:24.277Z,1019.67
2018-02-10T04:32:51.550Z,1019.68
2018-02-10T04:34:18.566Z,1019.70
2018-02-10T04:35:45.660Z,1019.71
2018-02-10T04:37:12.857Z,1019.71
2018-02-10T04:38:39.951Z,1019.68
2018-02-10T04:40:06.945Z,1019.66
2018-02-10T04:41:33.962Z,1019.66
2018-02-10T04:43:00.764Z,1019.63
2018-02-10T04:44:27.903Z,1019.68
2018-02-10T04:45:54.787Z,1019.72
2018-02-10T04:47:21.958Z,1019.68
2018-02-10T04:48:49.241Z,1019.71
2018-02-10T04:50:16.112Z,1019.72
2018-02-10T04:51:43.040Z,1019.73
2018-02-10T04:53:10.222Z,1019.75
2018-02-10T04:54:37.276Z,1019.72
2018-02-10T04:56:04.073Z,1019.69
2018-02-10T04:57:30.976Z,1019.66
2018-02-10T04:58:58.037Z,1019.75
2018-02-10T05:00:25.193Z,1019.70
2018-02-10T05:01:51.884Z,1019.64
2018-02-10T05:03:18.871Z,1019.65
2018-02-10T05:04:46.028Z,1019.61
2018-02-10T05:06:12.998Z,1019.62
2018-02-10T05:07:40.119Z,1019.67
2018-02-10T05:09:07.267Z,1019.74
2018-02-10T05:10:34.325Z,1019.76
2018-02-10T05:12:01.483Z,1019.75
2018-02-10T05:13:28.410Z,1019.76
2018-02-10T05:14:55.308Z,1019.75
2018-02-10T05:16:22.232Z,1019.79
2018-02-10T05:17:49.398Z,1019.79
2018-02-10T05:19:16.656Z,1019.79
2018-02-10T05:20:43.872Z,1019.80
2018-02-10T05:22:10.825Z,1019.83
2018-02-10T05:23:37.755Z,1019.87
2018-02-10T05:25:04.749Z,1019.78
2018-02-10T05:26:31.801Z,1019.76
2018-02-10T05:27:58.976Z,1019.79
2018-02-10T05:29:25.997Z,1019.81
2018-02-10T05:30:52.936Z,1019.81
2018-02-10T05:32:19.840Z,1019.83
2018-02-10T05:33:46.897Z,1019.85
2018-02-10T05:35:14.001Z,1019.88
2018-02-10T05:36:41.007Z,1019.84
2018-02-10T05:38:07.903Z,1019.86
2018-02-10T05:39:35.103Z,1019.88
2018-02-10T05:41:02.053Z,1019.89
2018-02-10T05:42:29.005Z,1019.89
2018-02-10T05:43:55.965Z,1019.84
2018-02-10T05:45:22.944Z,1019.83
2018-02-10T05:46:49.984Z,1019.88
2018-02-10T05:48:17.426Z,1019.92
2018-02-10T05:49:44.364Z,1019.90
2018-02-10T05:51:11.447Z,1019.90
2018-02-10T05:52:38.466Z,1019.91
2018-02-10T05:54:05.529Z,1019.87
2018-02-10T05:55:32.451Z,1019.90
2018-02-10T05:56:59.250Z,1019.91
2018-02-10T05:58:26.168Z,1019.94
2018-02-10T05:59:53.186Z,1019.92
2018-02-10T06:01:20.122Z,1019.94
2018-02-10T06:02:46.997Z,1019.95
2018-02-10T06:04:13.918Z,1019.92
2018-02-10T06:05:41.036Z,1019.91
2018-02-10T06:07:08.104Z,1019.91
2018-02-10T06:08:35.217Z,1019.91
2018-02-10T06:10:02.253Z,1019.94
2018-02-10T06:11:29.299Z,1019.99
2018-02-10T06:12:56.385Z,1020.00
2018-02-10T06:14:23.479Z,1019.95
2018-02-10T06:15:50.579Z,1019.95
2018-02-10T06:17:17.454Z,1019.95
2018-02-10T06:18:44.355Z,1019.97
2018-02-10T06:20:11.415Z,1019.98
2018-02-10T06:21:38.515Z,1019.99
2018-02-10T06:23:05.570Z,1020.01
2018-02-10T06:24:32.682Z,1020.04
2018-02-10T06:25:59.525Z,1020.03
2018-02-10T06:27:26.485Z,1020.02
2018-02-10T06:28:53.640Z,1019.99
2018-02-10T06:30:20.590Z,1019.99
2018-02-10T06:31:47.751Z,1020.01
2018-02-10T06:33:14.837Z,1020.02
2018-02-10T06:34:42.017Z,1020.02
2018-02-10T06:36:09.088Z,1020.06
2018-02-10T06:37:36.094Z,1020.03
2018-02-10T06:39:03.256Z,1020.02
2018-02-10T06:40:30.210Z,1020.00
2018-02-10T06:41:57.367Z,1020.01
2018-02-10T06:43:24.380Z,1020.03
2018-02-10T06:44:51.672Z,1020.06
2018-02-10T06:46:18.655Z,1020.08
2018-02-10T06:47:45.790Z,1020.12
2018-02-10T06:49:13.000Z,1020.14
2018-02-10T06:50:39.968Z,1020.12
2018-02-10T06:52:06.963Z,1020.13
2018-02-10T06:53:33.994Z,1020.13
2018-02-10T06:55:01.240Z,1020.13
2018-02-10T06:56:28.276Z,1020.13
2018-02-10T06:57:55.180Z,1020.13
2018-02-10T06:59:21.959Z,1020.13
2018-02-10T07:00:49.089Z,1020.13
2018-02-10T07:02:15.855Z,1020.10
2018-02-10T07:03:42.900Z,1020.11
2018-02-10T07:05:09.961Z,1020.12
2018-02-10T07:06:37.187Z,1020.14
2018-02-10T07:08:03.852Z,1020.16
2018-02-10T07:09:31.208Z,1020.16
2018-02-10T07:10:57.919Z,1020.18
2018-02-10T07:12:24.762Z,1020.19
2018-02-10T07:13:51.980Z,1020.25
2018-02-10T07:15:18.795Z,1020.28
2018-02-10T07:16:45.925Z,1020.31
2018-02-10T07:18:12.997Z,1020.29
2018-02-10T07:19:40.108Z,1020.30
2018-02-10T07:21:07.243Z,1020.31
2018-02-10T07:22:34.063Z,1020.33
2018-02-10T07:24:01.154Z,1020.34
2018-02-10T07:25:28.150Z,1020.36
2018-02-10T07:26:54.965Z,1020.32
2018-02-10T07:28:21.758Z,1020.28
2018-02-10T07:29:48.892Z,1020.27
2018-02-10T07:31:15.887Z,1020.27
2018-02-10T07:32:42.773Z,1020.26
2018-02-10T07:34:09.984Z,1020.28
2018-02-10T07:35:36.975Z,1020.29
2018-02-10T07:37:04.197Z,1020.29
2018-02-10T07:38:31.185Z,1020.29
2018-02-10T07:39:58.026Z,1020.30
2018-02-10T07:41:24.989Z,1020.27
2018-02-10T07:42:51.862Z,1020.23
2018-02-10T07:44:18.826Z,1020.22
2018-02-10T07:45:45.724Z,1020.20
2018-02-10T07:47:12.756Z,1020.17
2018-02-10T07:48:39.715Z,1020.16
2018-02-10T07:50:07.013Z,1020.13
2018-02-10T07:51:33.897Z,1020.11
2018-02-10T07:53:00.807Z,1020.08
2018-02-10T07:54:27.744Z,1020.09
2018-02-10T07:55:54.803Z,1020.08
2018-02-10T07:57:22.125Z,1020.10
2018-02-10T07:58:49.078Z,1020.13
2018-02-10T08:00:16.073Z,1020.16
2018-02-10T08:01:42.995Z,1020.14
2018-02-10T08:03:10.131Z,1020.15
2018-02-10T08:04:37.336Z,1020.17
2018-02-10T08:06:04.161Z,1020.13
2018-02-10T08:07:30.632Z,1020.16
2018-02-10T08:08:57.363Z,1020.18
2018-02-10T08:10:24.277Z,1020.20
2018-02-10T08:11:51.412Z,1020.17
2018-02-10T08:13:18.459Z,1020.18
2018-02-10T08:14:45.122Z,1020.21
2018-02-10T08:16:12.386Z,1020.22
2018-02-10T08:17:39.565Z,1020.20
2018-02-10T08:19:06.594Z,1020.21
2018-02-10T08:20:33.490Z,1020.22
2018-02-10T08:21:59.807Z,1020.21
2018-02-10T08:23:26.785Z,1020.25
2018-02-10T08:24:53.792Z,1020.25
2018-02-10T08:26:20.504Z,1020.24
2018-02-10T08:27:47.170Z,1020.21
2018-02-10T08:29:14.267Z,1020.16
2018-02-10T08:30:41.395Z,1020.13
2018-02-10T08:32:08.333Z,1020.12
2018-02-10T08:33:35.403Z,1020.12
2018-02-10T08:35:02.415Z,1020.10
2018-02-10T08:36:29.386Z,1020.10
2018-02-10T08:37:56.355Z,1020.13
2018-02-10T08:39:23.244Z,1020.14
2018-02-10T08:40:50.303Z,1020.14
2018-02-10T08:42:17.402Z,1020.15
2018-02-10T08:43:44.536Z,1020.14
2018-02-10T08:45:11.342Z,1020.13
2018-02-10T08:46:38.415Z,1020.13
2018-02-10T08:48:05.447Z,1020.12
2018-02-10T08:49:32.167Z,1020.09
2018-02-10T08:50:59.457Z,1020.04
2018-02-10T08:52:26.448Z,1019.99
2018-02-10T08:53:53.512Z,1020.02
2018-02-10T08:55:20.681Z,1020.03
2018-02-10T08:56:47.771Z,1020.02
2018-02-10T08:58:14.532Z,1020.00
2018-02-10T08:59:41.496Z,1019.99
2018-02-10T09:01:08.667Z,1019.97
2018-02-10T09:02:35.846Z,1019.92
2018-02-10T09:04:02.845Z,1019.90
2018-02-10T09:05:29.909Z,1019.88
2018-02-10T09:06:56.985Z,1019.89
2018-02-10T09:08:24.047Z,1019.93
2018-02-10T09:09:51.011Z,1019.93
2018-02-10T09:11:18.083Z,1019.97
2018-02-10T09:12:45.297Z,1020.00
2018-02-10T09:14:15.275Z,1019.98
2018-02-10T09:15:39.417Z,1019.99
2018-02-10T09:17:06.539Z,1019.98
2018-02-10T09:18:33.080Z,1019.98
2018-02-10T09:19:59.926Z,1020.01
2018-02-10T09:21:27.073Z,1020.02
2018-02-10T09:22:53.741Z,1020.01
2018-02-10T09:24:21.159Z,1020.00
2018-02-10T09:25:47.892Z,1019.99
2018-02-10T09:27:14.699Z,1019.96
2018-02-10T09:28:41.600Z,1019.96
2018-02-10T09:30:08.690Z,1019.94
2018-02-10T09:31:35.878Z,1019.94
2018-02-10T09:33:03.070Z,1019.95
2018-02-10T09:34:30.324Z,1019.95
2018-02-10T09:35:57.250Z,1019.93
2018-02-10T09:37:24.271Z,1019.91
2018-02-10T09:38:51.183Z,1019.89
2018-02-10T09:40:18.404Z,1019.86
2018-02-10T09:41:45.530Z,1019.84
2018-02-10T09:43:12.807Z,1019.84
2018-02-10T09:44:39.807Z,1019.86
2018-02-10T09:46:07.123Z,1019.86
2018-02-10T09:47:34.094Z,1019.88
2018-02-10T09:49:01.228Z,1019.89
2018-02-10T09:50:28.082Z,1019.87
2018-02-10T09:51:55.148Z,1019.86
2018-02-10T09:53:21.655Z,1019.84
2018-02-10T09:54:49.051Z,1019.85
2018-02-10T09:56:16.281Z,1019.84
2018-02-10T09:57:43.488Z,1019.84
2018-02-10T09:59:10.354Z,1019.82
2018-02-10T10:00:37.508Z,1019.80
2018-02-10T10:02:04.255Z,1019.78
2018-02-10T10:03:31.263Z,1019.77
2018-02-10T10:04:58.538Z,1019.75
2018-02-10T10:06:25.742Z,1019.70
2018-02-10T10:07:52.789Z,1019.71
2018-02-10T10:09:19.947Z,1019.72
2018-02-10T10:10:47.260Z,1019.72
2018-02-10T10:12:14.426Z,1019.70
2018-02-10T10:13:41.279Z,1019.69
2018-02-10T10:15:08.272Z,1019.71
2018-02-10T10:16:35.459Z,1019.67
2018-02-10T10:18:02.645Z,1019.66
2018-02-10T10:19:29.611Z,1019.64
2018-02-10T10:20:56.510Z,1019.65
2018-02-10T10:22:23.516Z,1019.67
2018-02-10T10:23:50.564Z,1019.65
2018-02-10T10:25:17.642Z,1019.64
2018-02-10T10:26:44.820Z,1019.60
2018-02-10T10:28:11.857Z,1019.54
2018-02-10T10:29:38.880Z,1019.53
2018-02-10T10:31:05.928Z,1019.53
2018-02-10T10:32:33.126Z,1019.52
2018-02-10T10:33:59.724Z,1019.50
2018-02-10T10:35:26.783Z,1019.43
2018-02-10T10:36:54.006Z,1019.44
2018-02-10T10:38:21.304Z,1019.40
2018-02-10T10:39:48.197Z,1019.43
2018-02-10T10:41:15.177Z,1019.43
2018-02-10T10:42:42.530Z,1019.46
2018-02-10T10:44:09.329Z,1019.45
2018-02-10T10:45:36.438Z,1019.44
2018-02-10T10:47:03.376Z,1019.42
2018-02-10T10:48:30.394Z,1019.40
2018-02-10T10:49:57.579Z,1019.39
2018-02-10T10:51:24.787Z,1019.39
2018-02-10T10:52:51.940Z,1019.39
2018-02-10T10:54:19.242Z,1019.38
2018-02-10T10:55:46.560Z,1019.39
2018-02-10T10:57:13.059Z,1019.38
2018-02-10T10:58:40.242Z,1019.37
2018-02-10T11:00:07.287Z,1019.34
2018-02-10T11:01:34.599Z,1019.35
2018-02-10T11:03:01.360Z,1019.32
2018-02-10T11:04:28.287Z,1019.33
2018-02-10T11:05:55.418Z,1019.35
2018-02-10T11:07:22.381Z,1019.37
2018-02-10T11:08:49.524Z,1019.39
2018-02-10T11:10:16.852Z,1019.38
2018-02-10T11:11:43.807Z,1019.37
2018-02-10T11:13:11.169Z,1019.36
2018-02-10T11:14:38.449Z,1019.35
2018-02-10T11:16:05.046Z,1019.32
2018-02-10T11:17:32.304Z,1019.28
2018-02-10T11:18:59.521Z,1019.25
2018-02-10T11:20:26.422Z,1019.22
2018-02-10T11:21:53.444Z,1019.19
2018-02-10T11:23:20.706Z,1019.14
2018-02-10T11:24:47.922Z,1019.12
2018-02-10T11:26:15.000Z,1019.11
2018-02-10T11:27:41.406Z,1019.07
2018-02-10T11:29:08.667Z,1019.03
2018-02-10T11:30:35.992Z,1019.01
2018-02-10T11:32:02.993Z,1018.99
2018-02-10T11:33:30.182Z,1018.98
2018-02-10T11:34:57.358Z,1018.97
2018-02-10T11:36:24.310Z,1019.00
2018-02-10T11:37:51.538Z,1019.00
2018-02-10T11:39:18.781Z,1019.00
2018-02-10T11:40:45.958Z,1019.00
2018-02-10T11:42:13.238Z,1019.01
2018-02-10T11:43:40.263Z,1018.99
2018-02-10T11:45:07.171Z,1018.96
2018-02-10T11:46:34.053Z,1018.94
2018-02-10T11:48:01.168Z,1018.90
2018-02-10T11:49:28.371Z,1018.89
2018-02-10T11:50:55.143Z,1018.83
2018-02-10T11:52:22.157Z,1018.81
2018-02-10T11:53:49.368Z,1018.79
2018-02-10T11:55:16.599Z,1018.77
2018-02-10T11:56:43.718Z,1018.75
2018-02-10T11:58:10.967Z,1018.75
2018-02-10T11:59:38.197Z,1018.76
2018-02-10T12:01:05.338Z,1018.75
2018-02-10T12:02:32.518Z,1018.77
2018-02-10T12:03:59.989Z,1018.78
2018-02-10T12:05:26.963Z,1018.83
2018-02-10T12:06:54.095Z,1018.84
2018-02-10T12:08:21.215Z,1018.83
2018-02-10T12:09:47.925Z,1018.79
2018-02-10T12:11:15.155Z,1018.76
2018-02-10T12:12:42.268Z,1018.71
2018-02-10T12:14:09.500Z,1018.68
2018-02-10T12:15:36.460Z,1018.66
2018-02-10T12:17:03.641Z,1018.65
2018-02-10T12:18:30.767Z,1018.65
2018-02-10T12:19:57.798Z,1018.65
2018-02-10T12:21:24.715Z,1018.62
2018-02-10T12:22:51.988Z,1018.63
2018-02-10T12:24:18.722Z,1018.61
2018-02-10T12:25:45.906Z,1018.57
2018-02-10T12:27:13.202Z,1018.55
2018-02-10T12:28:40.149Z,1018.54
2018-02-10T12:30:07.452Z,1018.57
2018-02-10T12:31:34.645Z,1018.61
2018-02-10T12:33:01.582Z,1018.62
2018-02-10T12:34:28.834Z,1018.60
2018-02-10T12:35:55.896Z,1018.58
2018-02-10T12:37:22.953Z,1018.55
2018-02-10T12:38:50.174Z,1018.52
2018-02-10T12:40:17.338Z,1018.50
2018-02-10T12:41:44.627Z,1018.47
2018-02-10T12:43:11.959Z,1018.44
2018-02-10T12:44:38.811Z,1018.40
2018-02-10T12:46:06.144Z,1018.38
2018-02-10T12:47:32.876Z,1018.34
2018-02-10T12:49:00.115Z,1018.33
2018-02-10T12:50:27.164Z,1018.31
2018-02-10T12:51:54.174Z,1018.33
2018-02-10T12:53:21.419Z,1018.34
2018-02-10T12:54:48.690Z,1018.33
2018-02-10T12:56:15.855Z,1018.30
2018-02-10T12:57:42.916Z,1018.27
2018-02-10T12:59:10.182Z,1018.25
2018-02-10T13:00:37.412Z,1018.21
2018-02-10T13:02:04.707Z,1018.20
2018-02-10T13:03:31.864Z,1018.20
2018-02-10T13:04:59.090Z,1018.20
2018-02-10T13:06:26.227Z,1018.18
2018-02-10T13:07:53.275Z,1018.20
2018-02-10T13:09:20.374Z,1018.18
2018-02-10T13:10:47.500Z,1018.17
2018-02-10T13:12:14.879Z,1018.18
2018-02-10T13:13:42.202Z,1018.15
2018-02-10T13:15:09.553Z,1018.14
2018-02-10T13:16:36.329Z,1018.14
2018-02-10T13:18:03.605Z,1018.10
2018-02-10T13:19:30.620Z,1018.10
2018-02-10T13:20:57.920Z,1018.11
2018-02-10T13:22:25.096Z,1018.13
2018-02-10T13:23:52.238Z,1018.11
2018-02-10T13:25:19.430Z,1018.08
2018-02-10T13:26:46.482Z,1018.07
2018-02-10T13:28:13.582Z,1018.09
2018-02-10T13:29:40.861Z,1018.13
2018-02-10T13:31:07.788Z,1018.10
2018-02-10T13:32:34.786Z,1018.09
2018-02-10T13:34:02.134Z,1018.05
2018-02-10T13:35:29.268Z,1018.06
2018-02-10T13:36:56.540Z,1018.05
2018-02-10T13:38:23.358Z,1018.03
2018-02-10T13:39:50.719Z,1018.01
2018-02-10T13:41:18.018Z,1018.00
2018-02-10T13:42:44.515Z,1018.03
2018-02-10T13:44:11.732Z,1017.99
2018-02-10T13:45:38.971Z,1017.99
2018-02-10T13:47:06.133Z,1017.96
2018-02-10T13:48:32.817Z,1017.93
2018-02-10T13:49:59.928Z,1017.93
2018-02-10T13:51:26.970Z,1017.90
2018-02-10T13:52:53.967Z,1017.91
2018-02-10T13:54:21.263Z,1017.89
2018-02-10T13:55:48.567Z,1017.87
2018-02-10T13:57:15.749Z,1017.88
2018-02-10T13:58:42.994Z,1017.87
2018-02-10T14:00:09.514Z,1017.89
2018-02-10T14:01:36.818Z,1017.90
2018-02-10T14:03:03.976Z,1017.89
2018-02-10T14:04:30.922Z,1017.87
2018-02-10T14:05:57.844Z,1017.84
2018-02-10T14:07:24.913Z,1017.86
2018-02-10T14:08:52.083Z,1017.82
2018-02-10T14:10:19.171Z,1017.79
2018-02-10T14:11:46.413Z,1017.75
2018-02-10T14:13:13.629Z,1017.73
2018-02-10T14:14:40.942Z,1017.71
2018-02-10T14:16:08.217Z,1017.72
2018-02-10T14:17:35.389Z,1017.71
2018-02-10T14:19:02.616Z,1017.69
2018-02-10T14:20:29.812Z,1017.69
2018-02-10T14:21:56.730Z,1017.67
2018-02-10T14:23:23.688Z,1017.66
2018-02-10T14:24:50.960Z,1017.65
2018-02-10T14:26:18.196Z,1017.62
2018-02-10T14:27:45.450Z,1017.63
2018-02-10T14:29:12.507Z,1017.63
2018-02-10T14:30:49.419Z,1017.63
2018-02-10T14:32:16.346Z,1017.70
2018-02-10T14:33:43.677Z,1017.67
2018-02-10T14:35:10.995Z,1017.67
2018-02-10T14:36:38.026Z,1017.67
2018-02-10T14:38:05.193Z,1017.65
2018-02-10T14:39:32.369Z,1017.64
2018-02-10T14:40:59.611Z,1017.64
2018-02-10T14:42:26.552Z,1017.64
2018-02-10T14:43:53.492Z,1017.65
2018-02-10T14:45:20.749Z,1017.63
2018-02-10T14:46:48.006Z,1017.61
2018-02-10T14:48:15.161Z,1017.57
2018-02-10T14:49:42.607Z,1017.60
2018-02-10T14:51:09.845Z,1017.60
2018-02-10T14:52:36.927Z,1017.59
2018-02-10T14:54:03.820Z,1017.59
2018-02-10T14:55:30.965Z,1017.58
2018-02-10T14:56:58.050Z,1017.57
2018-02-10T14:58:25.000Z,1017.57
2018-02-10T14:59:52.182Z,1017.58
2018-02-10T15:01:19.472Z,1017.59
2018-02-10T15:02:46.489Z,1017.58
2018-02-10T15:04:13.363Z,1017.56
2018-02-10T15:05:40.666Z,1017.54
2018-02-10T15:07:07.728Z,1017.52
2018-02-10T15:08:35.053Z,1017.51
2018-02-10T15:10:02.310Z,1017.52
2018-02-10T15:11:29.368Z,1017.59
2018-02-10T15:12:56.727Z,1017.63
2018-02-10T15:14:23.622Z,1017.64
2018-02-10T15:15:50.865Z,1017.65
2018-02-10T15:17:18.101Z,1017.65
2018-02-10T15:18:45.125Z,1017.64
2018-02-10T15:20:12.372Z,1017.61
2018-02-10T15:21:39.572Z,1017.56
2018-02-10T15:23:06.293Z,1017.58
2018-02-10T15:24:33.314Z,1017.61
2018-02-10T15:26:00.170Z,1017.58
2018-02-10T15:27:27.130Z,1017.58
2018-02-10T15:28:54.201Z,1017.57
2018-02-10T15:30:21.444Z,1017.57
2018-02-10T15:31:48.658Z,1017.55
2018-02-10T15:33:15.986Z,1017.55
2018-02-10T15:34:43.199Z,1017.54
2018-02-10T15:36:10.487Z,1017.53
2018-02-10T15:37:37.704Z,1017.55
2018-02-10T15:39:04.848Z,1017.52
2018-02-10T15:40:32.073Z,1017.51
2018-02-10T15:41:59.369Z,1017.51
2018-02-10T15:43:26.402Z,1017.53
2018-02-10T15:44:53.565Z,1017.54
2018-02-10T15:46:20.820Z,1017.55
2018-02-10T15:47:47.909Z,1017.55
2018-02-10T15:49:14.929Z,1017.51
2018-02-10T15:50:42.276Z,1017.51
2018-02-10T15:52:09.415Z,1017.53
2018-02-10T15:53:36.396Z,1017.53
2018-02-10T15:55:03.355Z,1017.52
2018-02-10T15:56:30.404Z,1017.51
2018-02-10T15:57:57.461Z,1017.51
2018-02-10T15:59:24.557Z,1017.53
2018-02-10T16:00:51.581Z,1017.55
2018-02-10T16:02:18.527Z,1017.59
2018-02-10T16:03:45.759Z,1017.58
2018-02-10T16:05:12.987Z,1017.58
2018-02-10T16:06:40.111Z,1017.58
2018-02-10T16:08:07.411Z,1017.56
2018-02-10T16:09:34.422Z,1017.55
2018-02-10T16:11:01.632Z,1017.53
2018-02-10T16:12:28.544Z,1017.52
2018-02-10T16:13:55.749Z,1017.52
2018-02-10T16:15:22.952Z,1017.48
2018-02-10T16:16:49.817Z,1017.49
2018-02-10T16:18:16.787Z,1017.49
2018-02-10T16:19:43.770Z,1017.48
2018-02-10T16:21:10.695Z,1017.46
2018-02-10T16:22:37.824Z,1017.46
2018-02-10T16:24:04.975Z,1017.46
2018-02-10T16:25:32.201Z,1017.46
2018-02-10T16:26:59.315Z,1017.44
2018-02-10T16:28:26.279Z,1017.43
2018-02-10T16:29:53.342Z,1017.42
2018-02-10T16:31:20.423Z,1017.43
2018-02-10T16:32:47.624Z,1017.46
2018-02-10T16:34:14.822Z,1017.44
2018-02-10T16:35:41.949Z,1017.41
2018-02-10T16:37:09.104Z,1017.41
2018-02-10T16:38:36.235Z,1017.41
2018-02-10T16:40:03.209Z,1017.43
2018-02-10T16:41:30.233Z,1017.40
2018-02-10T16:42:57.407Z,1017.38
2018-02-10T16:44:24.476Z,1017.39
2018-02-10T16:45:51.471Z,1017.38
2018-02-10T16:47:18.683Z,1017.34
2018-02-10T16:48:45.718Z,1017.32
2018-02-10T16:50:12.573Z,1017.26
2018-02-10T16:51:39.647Z,1017.21
2018-02-10T16:53:06.611Z,1017.19
2018-02-10T16:54:33.645Z,1017.18
2018-02-10T16:56:00.785Z,1017.21
2018-02-10T16:57:28.135Z,1017.20
2018-02-10T16:58:55.364Z,1017.16
2018-02-10T17:00:22.453Z,1017.15
2018-02-10T17:01:49.514Z,1017.13
2018-02-10T17:03:16.309Z,1017.13
2018-02-10T17:04:43.192Z,1017.09
2018-02-10T17:06:10.398Z,1017.07
2018-02-10T17:07:37.412Z,1017.05
2018-02-10T17:09:04.087Z,1017.04
2018-02-10T17:10:31.293Z,1016.99
2018-02-10T17:11:58.396Z,1016.96
2018-02-10T17:13:25.680Z,1016.95
2018-02-10T17:14:52.613Z,1016.95
2018-02-10T17:16:19.623Z,1016.94
2018-02-10T17:17:46.602Z,1016.95
2018-02-10T17:19:13.735Z,1016.96
2018-02-10T17:20:40.869Z,1016.97
2018-02-10T17:22:07.887Z,1016.96
2018-02-10T17:23:34.830Z,1016.96
2018-02-10T17:25:01.821Z,1016.92
2018-02-10T17:26:28.881Z,1016.92
2018-02-10T17:27:55.852Z,1016.91
2018-02-10T17:29:23.084Z,1016.93
2018-02-10T17:30:50.168Z,1016.91
2018-02-10T17:32:17.409Z,1016.88